Time;durP1;ratioP1;P1;durP2;ratioP2;P2;SDS_P1;SDS_P2;PMS_P1;PMS_P2;Temp;Humidity;BMP_temperature;BMP_pressure;BME280_temperature;BME280_humidity;BME280_pressure;Samples;Min_cycle;Max_cycle;Signal;HPM_P1;HPM_P2
2023/08/01 03:38:46;;;;;;;1999.90;999.90;;;;;;;;;;5047750;23;20250;-76
2023/08/01 03:41:32;;;;;;;1999.90;999.90;;;;;;;;;;4932293;29;20345;-76
2023/08/01 03:44:17;;;;;;;1999.90;999.90;;;;;;;;;;4926072;29;20349;-77
2023/08/01 03:47:01;;;;;;;1999.90;999.90;;;;;;;;;;4926079;29;20362;-75
2023/08/01 03:49:47;;;;;;;1999.90;999.90;;;;;;;;;;4927470;29;20312;-76
2023/08/01 03:52:31;;;;;;;1999.90;999.90;;;;;;;;;;4920408;29;20233;-76
2023/08/01 03:55:18;;;;;;;1999.90;999.90;;;;;;;;;;4921537;29;20212;-76
2023/08/01 03:58:03;;;;;;;1999.90;999.90;;;;;;;;;;4926265;29;20257;-76
2023/08/01 04:00:48;;;;;;;1999.90;999.90;;;;;;;;;;4936459;29;20301;-75
2023/08/01 04:03:34;;;;;;;1999.90;999.90;;;;;;;;;;4925068;29;20238;-71
2023/08/01 04:06:19;;;;;;;1999.90;999.90;;;;;;;;;;4932880;29;20252;-71
2023/08/01 04:09:06;;;;;;;1999.90;999.90;;;;;;;;;;4920772;29;20217;-72
2023/08/01 04:11:52;;;;;;;1999.90;999.90;;;;;;;;;;4923386;29;20729;-72
2023/08/01 04:14:37;;;;;;;1999.90;999.90;;;;;;;;;;4926863;29;20218;-73
2023/08/01 04:17:22;;;;;;;1999.90;999.90;;;;;;;;;;4923298;29;20229;-71
2023/08/01 04:20:08;;;;;;;1999.90;999.90;;;;;;;;;;4943517;29;20344;-75
2023/08/01 04:22:53;;;;;;;1999.90;999.90;;;;;;;;;;4935349;29;20213;-74
2023/08/01 04:25:38;;;;;;;1999.90;999.90;;;;;;;;;;4924621;29;20234;-71
2023/08/01 04:28:24;;;;;;;1999.90;999.90;;;;;;;;;;4927789;29;20233;-72
2023/08/01 04:31:09;;;;;;;1999.90;999.90;;;;;;;;;;4933787;29;20237;-73
2023/08/01 04:33:54;;;;;;;1999.90;999.90;;;;;;;;;;4942290;29;20221;-73
2023/08/01 04:36:39;;;;;;;1999.90;999.90;;;;;;;;;;4928121;29;20702;-74
2023/08/01 04:39:24;;;;;;;1999.90;999.90;;;;;;;;;;4920063;29;20238;-75
2023/08/01 04:42:09;;;;;;;1999.90;999.90;;;;;;;;;;4920086;29;20394;-75
2023/08/01 04:44:55;;;;;;;1999.90;999.90;;;;;;;;;;4923864;29;20213;-75
2023/08/01 04:47:40;;;;;;;1999.90;999.90;;;;;;;;;;4932566;29;20225;-75
2023/08/01 04:50:25;;;;;;;1999.90;999.90;;;;;;;;;;4930941;29;20260;-75
2023/08/01 04:53:11;;;;;;;1999.90;999.90;;;;;;;;;;4927347;29;20229;-74
2023/08/01 04:55:56;;;;;;;1999.90;999.90;;;;;;;;;;4932015;29;20233;-75
2023/08/01 04:58:41;;;;;;;1999.90;999.90;;;;;;;;;;4945567;29;20377;-75
2023/08/01 05:01:27;;;;;;;1999.90;999.90;;;;;;;;;;4926145;29;20209;-74
2023/08/01 05:04:12;;;;;;;1999.90;999.90;;;;;;;;;;4934046;29;20576;-74
2023/08/01 05:06:57;;;;;;;1999.90;999.90;;;;;;;;;;4942480;29;20253;-75
2023/08/01 05:09:41;;;;;;;1999.90;999.90;;;;;;;;;;4953047;29;20283;-76
2023/08/01 05:12:26;;;;;;;1999.90;999.90;;;;;;;;;;4944301;29;20224;-75
2023/08/01 05:15:12;;;;;;;1999.90;999.90;;;;;;;;;;4945253;29;20261;-76
2023/08/01 05:17:59;;;;;;;1999.90;999.90;;;;;;;;;;4943733;29;20236;-75
2023/08/01 05:20:44;;;;;;;1999.90;999.90;;;;;;;;;;4951972;29;20209;-75
2023/08/01 05:23:29;;;;;;;1999.90;999.90;;;;;;;;;;4924093;29;20314;-75
2023/08/01 05:26:14;;;;;;;1999.90;999.90;;;;;;;;;;4951801;29;20225;-75
2023/08/01 05:28:59;;;;;;;1999.90;999.90;;;;;;;;;;4951186;29;20205;-74
2023/08/01 05:31:43;;;;;;;1999.90;999.90;;;;;;;;;;4952047;29;20356;-76
2023/08/01 05:34:30;;;;;;;1999.90;999.90;;;;;;;;;;4943094;29;20224;-75
2023/08/01 05:37:14;;;;;;;1999.90;999.90;;;;;;;;;;4940522;29;20297;-76
2023/08/01 05:39:59;;;;;;;1999.90;999.90;;;;;;;;;;4945214;29;20240;-76
2023/08/01 05:42:44;;;;;;;1999.90;999.90;;;;;;;;;;4945798;29;20418;-76
2023/08/01 05:45:29;;;;;;;1999.90;999.90;;;;;;;;;;4931231;29;20664;-76
2023/08/01 05:48:14;;;;;;;1999.90;999.90;;;;;;;;;;4929216;29;20729;-74
2023/08/01 05:51:00;;;;;;;1999.90;999.90;;;;;;;;;;4936338;29;20205;-77
2023/08/01 05:53:45;;;;;;;1999.90;999.90;;;;;;;;;;4925764;29;20210;-76
2023/08/01 05:56:30;;;;;;;1999.90;999.90;;;;;;;;;;4929821;29;20228;-76
2023/08/01 05:59:15;;;;;;;1999.90;999.90;;;;;;;;;;4920271;29;20297;-77
2023/08/01 06:02:00;;;;;;;1999.90;999.90;;;;;;;;;;4926714;29;20572;-77
2023/08/01 06:04:45;;;;;;;1999.90;999.90;;;;;;;;;;4955754;29;20208;-76
2023/08/01 06:07:31;;;;;;;1999.90;999.90;;;;;;;;;;4952393;28;20236;-76
2023/08/01 06:10:16;;;;;;;1999.90;999.90;;;;;;;;;;4938820;29;20209;-76
2023/08/01 06:13:01;;;;;;;1999.90;999.90;;;;;;;;;;4933042;29;20272;-76
2023/08/01 06:15:46;;;;;;;1999.90;999.90;;;;;;;;;;4928452;29;20251;-76
2023/08/01 06:18:31;;;;;;;1999.90;999.90;;;;;;;;;;4928062;29;20225;-75
2023/08/01 06:21:15;;;;;;;1999.90;999.90;;;;;;;;;;4923418;29;20338;-74
2023/08/01 06:24:02;;;;;;;1999.90;999.90;;;;;;;;;;4932985;29;20707;-76
2023/08/01 06:26:46;;;;;;;1999.90;999.90;;;;;;;;;;4935496;28;20228;-75
2023/08/01 06:29:31;;;;;;;1999.90;999.90;;;;;;;;;;4935526;29;20701;-77
2023/08/01 06:32:16;;;;;;;1999.90;999.90;;;;;;;;;;4944371;29;20247;-76
2023/08/01 06:35:01;;;;;;;1999.90;999.90;;;;;;;;;;4927974;29;20229;-76
2023/08/01 06:37:46;;;;;;;1999.90;999.90;;;;;;;;;;4945616;28;20794;-76
2023/08/01 06:40:32;;;;;;;1999.90;999.90;;;;;;;;;;4940180;29;20423;-75
2023/08/01 06:43:17;;;;;;;1999.90;999.90;;;;;;;;;;4936053;29;20210;-74
2023/08/01 06:46:02;;;;;;;1999.90;999.90;;;;;;;;;;4935877;29;20221;-75
2023/08/01 06:48:47;;;;;;;1999.90;999.90;;;;;;;;;;4944199;29;20241;-74
2023/08/01 06:51:32;;;;;;;1999.90;999.90;;;;;;;;;;4935698;29;20217;-75
2023/08/01 06:54:17;;;;;;;1999.90;999.90;;;;;;;;;;4936033;29;20217;-74
2023/08/01 06:57:04;;;;;;;1999.90;999.90;;;;;;;;;;4935929;29;20233;-75
2023/08/01 06:59:49;;;;;;;1999.90;999.90;;;;;;;;;;4942557;29;20216;-76
2023/08/01 07:02:33;;;;;;;1999.90;999.90;;;;;;;;;;4928988;29;20218;-74
2023/08/01 07:05:18;;;;;;;1999.90;999.90;;;;;;;;;;4934926;29;20274;-74
2023/08/01 07:08:03;;;;;;;1999.90;999.90;;;;;;;;;;4936738;29;20229;-75
2023/08/01 07:10:49;;;;;;;1999.90;999.90;;;;;;;;;;4918276;29;20210;-74
2023/08/01 07:13:35;;;;;;;1999.90;999.90;;;;;;;;;;4921895;29;20605;-75
2023/08/01 07:16:20;;;;;;;1999.90;999.90;;;;;;;;;;4930565;29;20695;-72
2023/08/01 07:19:05;;;;;;;1999.90;999.90;;;;;;;;;;4928342;29;20231;-77
2023/08/01 07:21:50;;;;;;;1999.90;999.90;;;;;;;;;;4945586;29;20458;-76
2023/08/01 07:24:35;;;;;;;1999.90;999.90;;;;;;;;;;4934868;29;20843;-74
2023/08/01 07:27:20;;;;;;;1999.90;999.90;;;;;;;;;;4953105;28;20240;-75
2023/08/01 07:30:07;;;;;;;1999.90;999.90;;;;;;;;;;4934660;29;20293;-75
2023/08/01 07:32:52;;;;;;;1999.90;999.90;;;;;;;;;;4948161;29;20232;-74
2023/08/01 07:35:37;;;;;;;1999.90;999.90;;;;;;;;;;4935793;29;20341;-76
2023/08/01 07:38:22;;;;;;;1999.90;999.90;;;;;;;;;;4937676;28;20320;-76
2023/08/01 07:41:07;;;;;;;1999.90;999.90;;;;;;;;;;4944478;29;20447;-75
2023/08/01 07:43:53;;;;;;;1999.90;999.90;;;;;;;;;;4954210;29;20207;-76
2023/08/01 07:46:39;;;;;;;1999.90;999.90;;;;;;;;;;4932266;29;20314;-74
2023/08/01 07:49:24;;;;;;;1999.90;999.90;;;;;;;;;;4920693;29;20221;-74
2023/08/01 07:52:09;;;;;;;1999.90;999.90;;;;;;;;;;4926750;29;20602;-75
2023/08/01 07:54:55;;;;;;;1999.90;999.90;;;;;;;;;;4927961;29;20209;-73
2023/08/01 07:57:41;;;;;;;1999.90;999.90;;;;;;;;;;4941912;28;20235;-72
2023/08/01 08:00:26;;;;;;;1999.90;999.90;;;;;;;;;;4945072;29;20212;-73
2023/08/01 08:03:12;;;;;;;1999.90;999.90;;;;;;;;;;4942915;29;20686;-74
2023/08/01 08:05:57;;;;;;;1999.90;999.90;;;;;;;;;;4933691;29;20346;-75
2023/08/01 08:08:42;;;;;;;1999.90;999.90;;;;;;;;;;4934687;29;20754;-73
2023/08/01 08:11:27;;;;;;;1999.90;999.90;;;;;;;;;;4934404;29;20217;-74
2023/08/01 08:14:14;;;;;;;1999.90;999.90;;;;;;;;;;4934379;29;20212;-71
2023/08/01 08:16:59;;;;;;;1999.90;999.90;;;;;;;;;;4949736;28;20767;-74
2023/08/01 08:19:45;;;;;;;1999.90;999.90;;;;;;;;;;4933225;29;20836;-73
2023/08/01 08:22:30;;;;;;;1999.90;999.90;;;;;;;;;;4931303;29;20213;-73
2023/08/01 08:25:15;;;;;;;1999.90;999.90;;;;;;;;;;4926967;29;20301;-73
2023/08/01 08:28:00;;;;;;;1999.90;999.90;;;;;;;;;;4925204;29;20762;-73
2023/08/01 08:30:46;;;;;;;1999.90;999.90;;;;;;;;;;4947253;29;20236;-73
2023/08/01 08:33:31;;;;;;;1999.90;999.90;;;;;;;;;;4915425;29;20230;-76
2023/08/01 08:36:17;;;;;;;1999.90;999.90;;;;;;;;;;4932746;29;20229;-75
2023/08/01 08:39:03;;;;;;;1999.90;999.90;;;;;;;;;;4945600;29;20256;-75
2023/08/01 08:41:49;;;;;;;1999.90;999.90;;;;;;;;;;4948046;29;20214;-75
2023/08/01 08:44:36;;;;;;;1999.90;999.90;;;;;;;;;;4927233;29;20209;-75
2023/08/01 08:47:25;;;;;;;1999.90;999.90;;;;;;;;;;4933961;29;20241;-73
2023/08/01 08:50:11;;;;;;;1999.90;999.90;;;;;;;;;;4934118;29;20215;-74
2023/08/01 08:52:57;;;;;;;1999.90;999.90;;;;;;;;;;4934366;29;20649;-74
2023/08/01 08:55:42;;;;;;;1999.90;999.90;;;;;;;;;;4934569;29;20238;-77
2023/08/01 08:58:27;;;;;;;1999.90;999.90;;;;;;;;;;4934744;29;20245;-74
2023/08/01 09:01:12;;;;;;;1999.90;999.90;;;;;;;;;;4937484;29;20347;-72
2023/08/01 09:03:57;;;;;;;1999.90;999.90;;;;;;;;;;4937987;29;20228;-73
2023/08/01 09:06:45;;;;;;;1999.90;999.90;;;;;;;;;;4938050;29;20214;-74
2023/08/01 09:09:32;;;;;;;1999.90;999.90;;;;;;;;;;4937813;29;20225;-77
2023/08/01 09:12:17;;;;;;;1999.90;999.90;;;;;;;;;;4937215;29;20205;-74
2023/08/01 09:15:02;;;;;;;1999.90;999.90;;;;;;;;;;4925043;29;20213;-76
2023/08/01 09:17:50;;;;;;;1999.90;999.90;;;;;;;;;;4934513;29;20377;-74
2023/08/01 09:20:43;;;;;;;1999.90;999.90;;;;;;;;;;4947683;29;20419;-77
2023/08/01 09:23:28;;;;;;;1999.90;999.90;;;;;;;;;;4950384;29;20232;-76
2023/08/01 09:26:14;;;;;;;1999.90;999.90;;;;;;;;;;4947534;29;20217;-76
2023/08/01 09:28:59;;;;;;;1999.90;999.90;;;;;;;;;;4935017;29;20210;-75
2023/08/01 09:31:44;;;;;;;1999.90;999.90;;;;;;;;;;4950341;29;20329;-74
2023/08/01 09:34:29;;;;;;;1999.90;999.90;;;;;;;;;;4951623;29;20361;-74
2023/08/01 09:37:14;;;;;;;1999.90;999.90;;;;;;;;;;4956405;28;20257;-76
2023/08/01 09:39:59;;;;;;;1999.90;999.90;;;;;;;;;;4947053;29;20433;-75
2023/08/01 09:42:46;;;;;;;1999.90;999.90;;;;;;;;;;4929708;29;20640;-75
2023/08/01 09:45:31;;;;;;;1999.90;999.90;;;;;;;;;;4943217;29;20253;-75
2023/08/01 09:48:21;;;;;;;1999.90;999.90;;;;;;;;;;4936809;29;20320;-76
2023/08/01 09:51:07;;;;;;;1999.90;999.90;;;;;;;;;;4936655;29;20221;-75
2023/08/01 09:53:54;;;;;;;1999.90;999.90;;;;;;;;;;4941952;29;20309;-75
2023/08/01 09:56:42;;;;;;;1999.90;999.90;;;;;;;;;;4942919;28;20589;-76
2023/08/01 09:59:28;;;;;;;1999.90;999.90;;;;;;;;;;4936991;29;20221;-75
2023/08/01 10:02:15;;;;;;;1999.90;999.90;;;;;;;;;;4938170;29;20249;-76
2023/08/01 10:05:01;;;;;;;1999.90;999.90;;;;;;;;;;4933140;29;20214;-76
2023/08/01 10:07:48;;;;;;;1999.90;999.90;;;;;;;;;;4943156;28;20236;-74
2023/08/01 10:10:33;;;;;;;1999.90;999.90;;;;;;;;;;4943442;29;20809;-74
2023/08/01 10:13:18;;;;;;;1999.90;999.90;;;;;;;;;;4942963;29;20221;-74
2023/08/01 10:16:06;;;;;;;1999.90;999.90;;;;;;;;;;4940996;29;20212;-72
2023/08/01 10:18:52;;;;;;;1999.90;999.90;;;;;;;;;;4943995;29;20818;-73
2023/08/01 10:21:37;;;;;;;1999.90;999.90;;;;;;;;;;4947743;29;20233;-73
2023/08/01 10:24:23;;;;;;;1999.90;999.90;;;;;;;;;;4946694;29;20260;-75
2023/08/01 10:27:12;;;;;;;1999.90;999.90;;;;;;;;;;4952210;28;20276;-73
2023/08/01 10:29:57;;;;;;;1999.90;999.90;;;;;;;;;;4945200;29;20217;-76
2023/08/01 10:32:44;;;;;;;1999.90;999.90;;;;;;;;;;4947266;29;20236;-74
2023/08/01 10:35:33;;;;;;;1999.90;999.90;;;;;;;;;;4944881;29;20534;-73
2023/08/01 10:38:18;;;;;;;1999.90;999.90;;;;;;;;;;4945829;28;20315;-73
2023/08/01 10:41:03;;;;;;;1999.90;999.90;;;;;;;;;;4935190;29;20229;-72
2023/08/01 10:43:48;;;;;;;1999.90;999.90;;;;;;;;;;4941974;29;20239;-71
2023/08/01 10:46:45;;;;;;;1999.90;999.90;;;;;;;;;;4934771;29;20311;-73
2023/08/01 10:49:36;;;;;;;1999.90;999.90;;;;;;;;;;4946460;29;20635;-72
2023/08/01 10:52:23;;;;;;;1999.90;999.90;;;;;;;;;;4933481;29;20363;-71
2023/08/01 10:55:08;;;;;;;1999.90;999.90;;;;;;;;;;4935034;29;20209;-70
2023/08/01 10:57:54;;;;;;;1999.90;999.90;;;;;;;;;;4934717;29;20269;-72
2023/08/01 11:00:39;;;;;;;1999.90;999.90;;;;;;;;;;4929995;29;20337;-73
2023/08/01 11:03:34;;;;;;;1999.90;999.90;;;;;;;;;;4931855;29;20746;-73
2023/08/01 11:06:20;;;;;;;1999.90;999.90;;;;;;;;;;4935026;29;20229;-73
2023/08/01 11:09:15;;;;;;;1999.90;999.90;;;;;;;;;;4935712;29;20586;-72
2023/08/01 11:12:00;;;;;;;1999.90;999.90;;;;;;;;;;4935482;29;20233;-73
2023/08/01 11:14:46;;;;;;;1999.90;999.90;;;;;;;;;;4935141;29;20544;-71
2023/08/01 11:17:31;;;;;;;1999.90;999.90;;;;;;;;;;4935669;29;20228;-73
2023/08/01 11:20:17;;;;;;;1999.90;999.90;;;;;;;;;;4935611;29;20769;-73
2023/08/01 11:23:04;;;;;;;1999.90;999.90;;;;;;;;;;4934945;29;20208;-73
2023/08/01 11:25:50;;;;;;;1999.90;999.90;;;;;;;;;;4935578;29;20210;-73
2023/08/01 11:28:35;;;;;;;1999.90;999.90;;;;;;;;;;4935489;29;20328;-72
2023/08/01 11:31:20;;;;;;;1999.90;999.90;;;;;;;;;;4934997;29;20217;-73
2023/08/01 11:34:05;;;;;;;1999.90;999.90;;;;;;;;;;4935266;29;20122;-72
2023/08/01 11:36:50;;;;;;;1999.90;999.90;;;;;;;;;;4935307;29;20248;-72
2023/08/01 11:39:37;;;;;;;1999.90;999.90;;;;;;;;;;4935281;29;20213;-72
2023/08/01 11:42:22;;;;;;;1999.90;999.90;;;;;;;;;;4935060;29;20208;-73
2023/08/01 11:45:10;;;;;;;1999.90;999.90;;;;;;;;;;4935214;29;20249;-71
2023/08/01 11:47:55;;;;;;;1999.90;999.90;;;;;;;;;;4935056;29;20361;-73
2023/08/01 11:50:40;;;;;;;1999.90;999.90;;;;;;;;;;4935169;29;20212;-72
2023/08/01 11:53:25;;;;;;;1999.90;999.90;;;;;;;;;;4935015;29;20225;-73
2023/08/01 11:56:20;;;;;;;1999.90;999.90;;;;;;;;;;4935261;29;20308;-72
2023/08/01 11:59:09;;;;;;;1999.90;999.90;;;;;;;;;;4934994;29;20209;-73
2023/08/01 12:01:54;;;;;;;1999.90;999.90;;;;;;;;;;4935020;29;20209;-73
2023/08/01 12:04:39;;;;;;;1999.90;999.90;;;;;;;;;;4934790;29;20271;-72
2023/08/01 12:07:26;;;;;;;1999.90;999.90;;;;;;;;;;4934565;29;20224;-73
2023/08/01 12:10:11;;;;;;;1999.90;999.90;;;;;;;;;;4934655;29;20298;-72
2023/08/01 12:12:57;;;;;;;1999.90;999.90;;;;;;;;;;4934775;29;20528;-72
2023/08/01 12:15:42;;;;;;;1999.90;999.90;;;;;;;;;;4934856;29;20573;-73
2023/08/01 12:18:27;;;;;;;1999.90;999.90;;;;;;;;;;4934547;29;20229;-73
2023/08/01 12:21:13;;;;;;;1999.90;999.90;;;;;;;;;;4934229;29;20209;-73
2023/08/01 12:23:58;;;;;;;1999.90;999.90;;;;;;;;;;4935060;29;20554;-73
2023/08/01 12:26:43;;;;;;;1999.90;999.90;;;;;;;;;;4934724;29;20204;-73
2023/08/01 12:29:29;;;;;;;1999.90;999.90;;;;;;;;;;4934659;29;20201;-73
2023/08/01 12:32:14;;;;;;;1999.90;999.90;;;;;;;;;;4934236;29;20702;-72
2023/08/01 12:34:59;;;;;;;1999.90;999.90;;;;;;;;;;4936263;29;20441;-74
2023/08/01 12:37:43;;;;;;;1999.90;999.90;;;;;;;;;;4938163;29;20229;-72
2023/08/01 12:40:28;;;;;;;1999.90;999.90;;;;;;;;;;4938422;29;20213;-72
2023/08/01 12:43:13;;;;;;;1999.90;999.90;;;;;;;;;;4938369;29;20209;-72
2023/08/01 12:45:59;;;;;;;1999.90;999.90;;;;;;;;;;4938473;29;20581;-73
2023/08/01 12:48:44;;;;;;;1999.90;999.90;;;;;;;;;;4934744;29;20312;-73
2023/08/01 12:51:30;;;;;;;1999.90;999.90;;;;;;;;;;4935847;29;20217;-71
2023/08/01 12:54:14;;;;;;;1999.90;999.90;;;;;;;;;;4926886;29;20218;-72
2023/08/01 12:56:59;;;;;;;1999.90;999.90;;;;;;;;;;4928782;29;20242;-70
2023/08/01 12:59:44;;;;;;;1999.90;999.90;;;;;;;;;;4947589;29;20216;-72
2023/08/01 13:02:31;;;;;;;1999.90;999.90;;;;;;;;;;4955475;29;20216;-73
2023/08/01 13:05:16;;;;;;;1999.90;999.90;;;;;;;;;;4945041;29;20213;-73
2023/08/01 13:08:00;;;;;;;1999.90;999.90;;;;;;;;;;4944534;28;20409;-71
2023/08/01 13:10:46;;;;;;;1999.90;999.90;;;;;;;;;;4957027;29;20299;-72
2023/08/01 13:13:31;;;;;;;1999.90;999.90;;;;;;;;;;4942856;29;20777;-72
2023/08/01 13:16:15;;;;;;;1999.90;999.90;;;;;;;;;;4957031;29;20216;-71
2023/08/01 13:19:02;;;;;;;1999.90;999.90;;;;;;;;;;4952306;29;20336;-73
2023/08/01 13:21:46;;;;;;;1999.90;999.90;;;;;;;;;;4924105;29;20694;-72
2023/08/01 13:24:31;;;;;;;1999.90;999.90;;;;;;;;;;4937440;29;20265;-70
2023/08/01 13:27:16;;;;;;;1999.90;999.90;;;;;;;;;;4937146;29;20788;-71
2023/08/01 13:30:01;;;;;;;1999.90;999.90;;;;;;;;;;4937453;29;20228;-72
2023/08/01 13:32:46;;;;;;;1999.90;999.90;;;;;;;;;;4929410;29;20213;-71
2023/08/01 13:35:32;;;;;;;1999.90;999.90;;;;;;;;;;4936884;29;20249;-72
2023/08/01 13:38:17;;;;;;;1999.90;999.90;;;;;;;;;;4937137;29;20233;-71
2023/08/01 13:41:02;;;;;;;1999.90;999.90;;;;;;;;;;4936884;29;20682;-72
2023/08/01 13:43:47;;;;;;;1999.90;999.90;;;;;;;;;;4937113;29;20580;-73
2023/08/01 13:46:32;;;;;;;1999.90;999.90;;;;;;;;;;4937042;29;20329;-72
2023/08/01 13:49:17;;;;;;;1999.90;999.90;;;;;;;;;;4942490;29;20221;-71
2023/08/01 13:52:04;;;;;;;1999.90;999.90;;;;;;;;;;4933517;29;20293;-72
2023/08/01 13:54:49;;;;;;;1999.90;999.90;;;;;;;;;;4941249;29;20728;-72
2023/08/01 13:57:34;;;;;;;1999.90;999.90;;;;;;;;;;4956183;28;20228;-73
2023/08/01 14:00:19;;;;;;;1999.90;999.90;;;;;;;;;;4944189;29;20599;-72
2023/08/01 14:03:04;;;;;;;1999.90;999.90;;;;;;;;;;4944100;29;20485;-72
2023/08/01 14:05:49;;;;;;;1999.90;999.90;;;;;;;;;;4938794;29;20253;-71
2023/08/01 14:08:35;;;;;;;1999.90;999.90;;;;;;;;;;4953832;28;20277;-71
2023/08/01 14:11:20;;;;;;;1999.90;999.90;;;;;;;;;;4954081;29;20252;-73
2023/08/01 14:14:05;;;;;;;1999.90;999.90;;;;;;;;;;4918857;29;21625;-73
2023/08/01 14:16:50;;;;;;;1999.90;999.90;;;;;;;;;;4931558;29;20233;-72
2023/08/01 14:19:35;;;;;;;1999.90;999.90;;;;;;;;;;4926692;29;20258;-72
2023/08/01 14:22:19;;;;;;;1999.90;999.90;;;;;;;;;;4923274;29;20210;-72
2023/08/01 14:25:06;;;;;;;1999.90;999.90;;;;;;;;;;4930608;29;20240;-72
2023/08/01 14:27:51;;;;;;;1999.90;999.90;;;;;;;;;;4934086;29;20724;-72
2023/08/01 14:30:37;;;;;;;1999.90;999.90;;;;;;;;;;4923415;29;20313;-72
2023/08/01 14:33:21;;;;;;;1999.90;999.90;;;;;;;;;;4925112;29;20726;-72
2023/08/01 14:36:08;;;;;;;1999.90;999.90;;;;;;;;;;4928546;29;20212;-72
2023/08/01 14:38:54;;;;;;;1999.90;999.90;;;;;;;;;;4935015;29;20221;-72
2023/08/01 14:41:40;;;;;;;1999.90;999.90;;;;;;;;;;4927874;29;20798;-72
2023/08/01 14:44:25;;;;;;;1999.90;999.90;;;;;;;;;;4925460;29;20751;-73
2023/08/01 14:47:10;;;;;;;1999.90;999.90;;;;;;;;;;4935073;28;20302;-72
2023/08/01 14:49:56;;;;;;;1999.90;999.90;;;;;;;;;;4940750;29;20205;-72
2023/08/01 14:52:41;;;;;;;1999.90;999.90;;;;;;;;;;4929452;29;20205;-72
2023/08/01 14:55:26;;;;;;;1999.90;999.90;;;;;;;;;;4928046;29;20233;-72
2023/08/01 14:58:13;;;;;;;1999.90;999.90;;;;;;;;;;4928109;29;20365;-71
2023/08/01 15:00:58;;;;;;;1999.90;999.90;;;;;;;;;;4922616;29;20217;-72
2023/08/01 15:03:43;;;;;;;1999.90;999.90;;;;;;;;;;4931158;29;20288;-72
2023/08/01 15:06:28;;;;;;;1999.90;999.90;;;;;;;;;;4934118;29;20202;-72
2023/08/01 15:09:13;;;;;;;1999.90;999.90;;;;;;;;;;4923646;29;20254;-72
2023/08/01 15:11:58;;;;;;;1999.90;999.90;;;;;;;;;;4921593;29;20718;-72
2023/08/01 15:14:44;;;;;;;1999.90;999.90;;;;;;;;;;4921633;29;20274;-72
2023/08/01 15:17:29;;;;;;;1999.90;999.90;;;;;;;;;;4929276;29;20307;-72
2023/08/01 15:20:14;;;;;;;1999.90;999.90;;;;;;;;;;4934240;29;20564;-71
2023/08/01 15:22:59;;;;;;;1999.90;999.90;;;;;;;;;;4937061;29;20206;-72
2023/08/01 15:25:51;;;;;;;1999.90;999.90;;;;;;;;;;4932584;29;20258;-68
2023/08/01 15:28:37;;;;;;;1999.90;999.90;;;;;;;;;;4924472;29;20637;-72
2023/08/01 15:31:23;;;;;;;1999.90;999.90;;;;;;;;;;4923272;29;20642;-72
2023/08/01 15:34:08;;;;;;;1999.90;999.90;;;;;;;;;;4918353;29;20213;-73
2023/08/01 15:36:54;;;;;;;1999.90;999.90;;;;;;;;;;4920797;29;20241;-73
2023/08/01 15:39:39;;;;;;;1999.90;999.90;;;;;;;;;;4923541;29;20234;-72
2023/08/01 15:42:24;;;;;;;1999.90;999.90;;;;;;;;;;4929773;29;20218;-74
2023/08/01 15:45:09;;;;;;;1999.90;999.90;;;;;;;;;;4935178;29;20205;-74
2023/08/01 15:47:55;;;;;;;1999.90;999.90;;;;;;;;;;4941621;29;20320;-73
2023/08/01 15:50:41;;;;;;;1999.90;999.90;;;;;;;;;;4942642;29;20269;-73
2023/08/01 15:53:26;;;;;;;1999.90;999.90;;;;;;;;;;4950346;29;20264;-73
2023/08/01 15:56:11;;;;;;;1999.90;999.90;;;;;;;;;;4953328;29;20480;-74
2023/08/01 15:58:56;;;;;;;1999.90;999.90;;;;;;;;;;4941552;29;20708;-73
2023/08/01 16:01:41;;;;;;;1999.90;999.90;;;;;;;;;;4933603;29;20321;-73
2023/08/01 16:04:27;;;;;;;1999.90;999.90;;;;;;;;;;4943655;29;20314;-72
2023/08/01 16:07:12;;;;;;;1999.90;999.90;;;;;;;;;;4934877;29;20236;-72
2023/08/01 16:09:58;;;;;;;1999.90;999.90;;;;;;;;;;4934135;29;20571;-74
2023/08/01 16:12:44;;;;;;;1999.90;999.90;;;;;;;;;;4942948;29;20263;-72
2023/08/01 16:15:28;;;;;;;1999.90;999.90;;;;;;;;;;4934545;29;20314;-73
2023/08/01 16:18:13;;;;;;;1999.90;999.90;;;;;;;;;;4936109;29;20241;-73
2023/08/01 16:21:00;;;;;;;1999.90;999.90;;;;;;;;;;4927568;29;20222;-72
2023/08/01 16:23:45;;;;;;;1999.90;999.90;;;;;;;;;;4934228;29;20215;-73
2023/08/01 16:26:30;;;;;;;1999.90;999.90;;;;;;;;;;4942075;28;20214;-73
2023/08/01 16:29:15;;;;;;;1999.90;999.90;;;;;;;;;;4942347;29;20296;-72
2023/08/01 16:32:00;;;;;;;1999.90;999.90;;;;;;;;;;4938394;29;20209;-73
2023/08/01 16:34:45;;;;;;;1999.90;999.90;;;;;;;;;;4953930;29;20225;-72
2023/08/01 16:37:31;;;;;;;1999.90;999.90;;;;;;;;;;4953684;28;20243;-73
2023/08/01 16:40:16;;;;;;;1999.90;999.90;;;;;;;;;;4942463;29;20340;-73
2023/08/01 16:43:01;;;;;;;1999.90;999.90;;;;;;;;;;4943002;29;20342;-72
2023/08/01 16:45:46;;;;;;;1999.90;999.90;;;;;;;;;;4934572;29;20340;-73
2023/08/01 16:48:31;;;;;;;1999.90;999.90;;;;;;;;;;4934522;29;20269;-73
2023/08/01 16:51:15;;;;;;;1999.90;999.90;;;;;;;;;;4928159;29;20505;-72
2023/08/01 16:54:02;;;;;;;1999.90;999.90;;;;;;;;;;4933942;29;20242;-71
2023/08/01 16:56:47;;;;;;;1999.90;999.90;;;;;;;;;;4943073;29;20236;-73
2023/08/01 16:59:32;;;;;;;1999.90;999.90;;;;;;;;;;4932943;29;20219;-73
2023/08/01 17:02:17;;;;;;;1999.90;999.90;;;;;;;;;;4930703;29;20216;-74
2023/08/01 17:05:02;;;;;;;1999.90;999.90;;;;;;;;;;4931028;29;20426;-72
2023/08/01 17:07:47;;;;;;;1999.90;999.90;;;;;;;;;;4938125;28;20239;-74
2023/08/01 17:10:34;;;;;;;1999.90;999.90;;;;;;;;;;4950029;29;20215;-75
2023/08/01 17:13:19;;;;;;;1999.90;999.90;;;;;;;;;;4924541;29;20222;-74
2023/08/01 17:16:04;;;;;;;1999.90;999.90;;;;;;;;;;4922672;29;20224;-74
2023/08/01 17:18:49;;;;;;;1999.90;999.90;;;;;;;;;;4925048;29;20240;-75
2023/08/01 17:21:34;;;;;;;1999.90;999.90;;;;;;;;;;4943247;29;20236;-75
2023/08/01 17:24:19;;;;;;;1999.90;999.90;;;;;;;;;;4944893;29;20205;-74
2023/08/01 17:27:05;;;;;;;1999.90;999.90;;;;;;;;;;4956816;28;20712;-75
2023/08/01 17:29:50;;;;;;;1999.90;999.90;;;;;;;;;;4956770;29;20221;-73
2023/08/01 17:32:35;;;;;;;1999.90;999.90;;;;;;;;;;4956576;29;20248;-73
2023/08/01 17:35:20;;;;;;;1999.90;999.90;;;;;;;;;;4956716;29;20232;-74
2023/08/01 17:38:05;;;;;;;1999.90;999.90;;;;;;;;;;4956545;28;20712;-75
2023/08/01 17:40:50;;;;;;;1999.90;999.90;;;;;;;;;;4956373;29;20207;-74
2023/08/01 17:43:37;;;;;;;1999.90;999.90;;;;;;;;;;4955236;29;20512;-75
2023/08/01 17:46:22;;;;;;;1999.90;999.90;;;;;;;;;;4944184;29;20204;-76
2023/08/01 17:49:07;;;;;;;1999.90;999.90;;;;;;;;;;4941281;29;20219;-75
2023/08/01 17:51:51;;;;;;;1999.90;999.90;;;;;;;;;;4956167;29;20231;-75
2023/08/01 17:54:36;;;;;;;1999.90;999.90;;;;;;;;;;4956846;29;20299;-75
2023/08/01 17:57:21;;;;;;;1999.90;999.90;;;;;;;;;;4956482;28;20239;-74
2023/08/01 18:00:10;;;;;;;1999.90;999.90;;;;;;;;;;4956212;29;20212;-74
2023/08/01 18:02:54;;;;;;;1999.90;999.90;;;;;;;;;;4940006;29;20578;-74
2023/08/01 18:05:40;;;;;;;1999.90;999.90;;;;;;;;;;4940235;29;20205;-74
2023/08/01 18:08:25;;;;;;;1999.90;999.90;;;;;;;;;;4940279;29;20723;-75
2023/08/01 18:11:11;;;;;;;1999.90;999.90;;;;;;;;;;4955715;29;20259;-75
2023/08/01 18:13:57;;;;;;;1999.90;999.90;;;;;;;;;;4955780;29;20684;-75
2023/08/01 18:16:43;;;;;;;1999.90;999.90;;;;;;;;;;4955662;28;20366;-73
2023/08/01 18:19:28;;;;;;;1999.90;999.90;;;;;;;;;;4940305;29;20801;-73
2023/08/01 18:22:13;;;;;;;1999.90;999.90;;;;;;;;;;4931237;29;20337;-76
2023/08/01 18:24:58;;;;;;;1999.90;999.90;;;;;;;;;;4942670;29;20224;-75
2023/08/01 18:27:43;;;;;;;1999.90;999.90;;;;;;;;;;4951513;28;20243;-75
2023/08/01 18:30:28;;;;;;;1999.90;999.90;;;;;;;;;;4917487;29;20603;-75
2023/08/01 18:33:15;;;;;;;1999.90;999.90;;;;;;;;;;4932445;29;20264;-76
2023/08/01 18:36:00;;;;;;;1999.90;999.90;;;;;;;;;;4948826;29;20266;-75
2023/08/01 18:38:45;;;;;;;1999.90;999.90;;;;;;;;;;4943507;29;20602;-74
2023/08/01 18:41:30;;;;;;;1999.90;999.90;;;;;;;;;;4929884;29;20584;-75
2023/08/01 18:44:15;;;;;;;1999.90;999.90;;;;;;;;;;4928389;29;20232;-73
2023/08/01 18:47:00;;;;;;;1999.90;999.90;;;;;;;;;;4946242;28;20243;-73
2023/08/01 18:49:50;;;;;;;1999.90;999.90;;;;;;;;;;4949934;29;20218;-75
2023/08/01 18:52:35;;;;;;;1999.90;999.90;;;;;;;;;;4939362;29;20258;-75
2023/08/01 18:55:23;;;;;;;1999.90;999.90;;;;;;;;;;4943539;29;20227;-74
2023/08/01 18:58:08;;;;;;;1999.90;999.90;;;;;;;;;;4951693;28;21303;-74
2023/08/01 19:00:53;;;;;;;1999.90;999.90;;;;;;;;;;4943169;29;20223;-72